createdAt,value
2018-06-13T00:01:34.532Z,99826.80
2018-06-13T00:04:02.970Z,99818.27
2018-06-13T00:06:31.474Z,99818.16
2018-06-13T00:09:00.330Z,99823.78
2018-06-13T00:11:51.416Z,99821.67
2018-06-13T00:14:19.758Z,99818.52
2018-06-13T00:16:48.608Z,99810.15
2018-06-13T00:19:16.922Z,99815.30
2018-06-13T00:21:45.424Z,99812.51
2018-06-13T00:24:14.513Z,99818.00
2018-06-13T00:26:43.200Z,99822.03
2018-06-13T00:29:11.736Z,99822.84
2018-06-13T00:31:40.932Z,99817.70
2018-06-13T00:34:11.092Z,99815.25
2018-06-13T00:36:39.552Z,99809.64
2018-06-13T00:39:07.886Z,99809.87
2018-06-13T00:41:40.724Z,99815.03
2018-06-13T00:44:09.482Z,99813.69
2018-06-13T00:46:38.456Z,99810.34
2018-06-13T00:49:07.278Z,99820.75
2018-06-13T00:57:21.132Z,99814.38
2018-06-13T01:00:08.884Z,99812.61
2018-06-13T01:02:37.642Z,99816.41
2018-06-13T01:05:06.461Z,99822.45
2018-06-13T01:07:35.728Z,99822.25
2018-06-13T01:10:04.732Z,99813.95
2018-06-13T01:12:33.484Z,99812.03
2018-06-13T01:15:03.248Z,99813.49
2018-06-13T01:17:32.192Z,99810.45
2018-06-13T01:20:03.908Z,99807.77
2018-06-13T01:22:34.226Z,99812.38
2018-06-13T01:25:08.532Z,99809.15
2018-06-13T01:27:37.801Z,99812.84
2018-06-13T01:32:59.194Z,99812.84
2018-06-13T01:35:29.818Z,99807.20
2018-06-13T01:37:59.817Z,99805.66
2018-06-13T01:43:21.190Z,99803.30
2018-06-13T01:45:50.943Z,99806.65
2018-06-13T01:48:20.042Z,99801.73
2018-06-13T01:50:57.605Z,99800.61
2018-06-13T01:53:28.251Z,99798.59
2018-06-13T01:55:59.287Z,99798.03
2018-06-13T01:58:31.036Z,99800.71
2018-06-13T02:01:10.731Z,99799.82
2018-06-13T02:03:41.292Z,99802.61
2018-06-13T02:06:11.687Z,99796.47
2018-06-13T02:08:42.225Z,99798.80
2018-06-13T02:11:18.473Z,99799.13
2018-06-13T02:13:48.262Z,99799.46
2018-06-13T02:16:16.992Z,99807.84
2018-06-13T02:18:46.605Z,99808.16
2018-06-13T02:21:17.536Z,99814.41
2018-06-13T02:23:54.198Z,99812.06
2018-06-13T02:26:23.874Z,99812.60
2018-06-13T02:28:53.498Z,99810.02
2018-06-13T02:31:45.551Z,99814.85
2018-06-13T02:34:14.996Z,99812.69
2018-06-13T02:36:43.963Z,99828.61
2018-06-13T02:39:12.679Z,99829.72
2018-06-13T02:41:41.738Z,99822.20
2018-06-13T02:44:11.054Z,99824.77
2018-06-13T02:46:40.106Z,99829.79
2018-06-13T02:49:09.926Z,99821.38
2018-06-13T02:51:44.483Z,99818.70
2018-06-13T02:54:13.958Z,99824.27
2018-06-13T02:56:43.192Z,99829.33
2018-06-13T02:59:14.415Z,99830.77
2018-06-13T03:01:43.215Z,99832.22
2018-06-13T03:04:13.268Z,99822.95
2018-06-13T03:06:42.619Z,99833.25
2018-06-13T03:09:12.010Z,99830.56
2018-06-13T03:11:41.958Z,99833.92
2018-06-13T03:14:12.086Z,99837.04
2018-06-13T03:16:41.120Z,99831.57
2018-06-13T03:19:12.775Z,99831.20
2018-06-13T03:21:59.379Z,99832.98
2018-06-13T03:24:32.052Z,99841.45
2018-06-13T03:27:02.854Z,99836.52
2018-06-13T03:29:34.664Z,99845.94
2018-06-13T03:32:26.483Z,99852.64
2018-06-13T03:34:56.365Z,99848.38
2018-06-13T03:37:29.761Z,99848.63
2018-06-13T03:40:12.577Z,99853.58
2018-06-13T03:42:42.796Z,99856.87
2018-06-13T03:45:11.682Z,99853.05
2018-06-13T03:47:40.054Z,99854.32
2018-06-13T03:50:08.498Z,99863.17
2018-06-13T03:52:37.842Z,99857.00
2018-06-13T03:55:06.342Z,99862.61
2018-06-13T03:57:44.878Z,99862.61
2018-06-13T04:00:15.710Z,99858.11
2018-06-13T04:02:46.102Z,99867.84
2018-06-13T04:05:17.410Z,99858.91
2018-06-13T04:10:19.744Z,99872.33
2018-06-13T04:15:23.655Z,99872.77
2018-06-13T04:17:52.090Z,99878.44
2018-06-13T04:20:20.402Z,99879.13
2018-06-13T04:22:48.794Z,99875.08
2018-06-13T04:25:17.110Z,99883.19
2018-06-13T04:27:45.547Z,99882.38
2018-06-13T04:30:13.864Z,99879.34
2018-06-13T04:32:42.205Z,99879.34
2018-06-13T04:35:10.566Z,99883.47
2018-06-13T04:37:39.787Z,99884.91
2018-06-13T04:40:08.133Z,99883.75
2018-06-13T04:42:36.504Z,99883.42
2018-06-13T04:45:04.890Z,99884.43
2018-06-13T04:47:33.178Z,99887.30
2018-06-13T04:50:06.600Z,99888.27
2018-06-13T04:52:34.924Z,99894.58
2018-06-13T04:55:03.849Z,99890.55
2018-06-13T04:57:32.138Z,99884.63
2018-06-13T05:00:09.902Z,99887.77
2018-06-13T05:02:38.205Z,99901.81
2018-06-13T05:05:06.784Z,99899.70
2018-06-13T05:07:35.145Z,99907.46
2018-06-13T05:10:13.010Z,99913.06
2018-06-13T05:12:41.319Z,99911.91
2018-06-13T05:15:09.620Z,99917.85
2018-06-13T05:17:37.958Z,99921.67
2018-06-13T05:20:11.453Z,99921.58
2018-06-13T05:22:39.766Z,99917.08
2018-06-13T05:25:08.052Z,99916.52
2018-06-13T05:27:37.333Z,99910.61
2018-06-13T05:30:10.857Z,99914.02
2018-06-13T05:32:39.204Z,99912.77
2018-06-13T05:35:07.687Z,99917.45
2018-06-13T05:37:35.985Z,99923.28
2018-06-13T05:40:04.433Z,99920.91
2018-06-13T05:42:33.031Z,99922.06
2018-06-13T05:45:01.363Z,99922.53
2018-06-13T05:47:29.643Z,99921.67
2018-06-13T05:49:58.178Z,99922.39
2018-06-13T05:52:27.629Z,99922.48
2018-06-13T05:54:56.096Z,99926.50
2018-06-13T05:57:24.362Z,99924.73
2018-06-13T05:59:52.711Z,99934.59
2018-06-13T06:02:21.042Z,99930.01
2018-06-13T06:04:49.438Z,99922.59
2018-06-13T06:07:17.717Z,99916.80
2018-06-13T06:09:46.084Z,99919.95
2018-06-13T06:12:14.398Z,99915.69
2018-06-13T06:14:43.818Z,99921.30
2018-06-13T06:17:12.123Z,99917.95
2018-06-13T06:19:40.456Z,99919.58
2018-06-13T06:22:08.866Z,99919.67
2018-06-13T06:24:37.280Z,99919.23
2018-06-13T06:27:06.962Z,99922.84
2018-06-13T06:29:35.432Z,99917.23
2018-06-13T06:32:08.920Z,99917.37
2018-06-13T06:34:37.308Z,99916.95
2018-06-13T06:37:05.630Z,99917.77
2018-06-13T06:39:34.008Z,99917.91
2018-06-13T06:42:02.517Z,99916.56
2018-06-13T06:44:30.816Z,99917.33
2018-06-13T06:46:59.278Z,99917.13
2018-06-13T06:49:27.559Z,99920.72
2018-06-13T06:51:55.974Z,99924.65
2018-06-13T06:54:24.359Z,99914.16
2018-06-13T06:56:52.698Z,99918.61
2018-06-13T06:59:21.014Z,99921.20
2018-06-13T07:01:49.706Z,99921.44
2018-06-13T07:04:18.160Z,99930.96
2018-06-13T07:06:46.582Z,99928.08
2018-06-13T07:09:14.939Z,99922.55
2018-06-13T07:11:43.392Z,99920.80
2018-06-13T07:14:11.719Z,99930.43
2018-06-13T07:16:40.686Z,99921.53
2018-06-13T07:19:09.063Z,99925.35
2018-06-13T07:21:46.956Z,99922.67
2018-06-13T07:24:15.314Z,99927.13
2018-06-13T07:26:43.789Z,99930.48
2018-06-13T07:29:12.180Z,99924.68
2018-06-13T07:31:50.028Z,99935.62
2018-06-13T07:34:18.438Z,99935.16
2018-06-13T07:36:46.831Z,99937.95
2018-06-13T07:39:15.194Z,99939.52
2018-06-13T07:41:43.606Z,99934.85
2018-06-13T07:44:12.025Z,99941.44
2018-06-13T07:46:40.449Z,99937.07
2018-06-13T07:49:08.903Z,99947.71
2018-06-13T07:51:37.396Z,99943.75
2018-06-13T07:54:05.816Z,99943.62
2018-06-13T07:56:35.409Z,99943.19
2018-06-13T07:59:06.746Z,99947.44
2018-06-13T08:01:36.247Z,99944.76
2018-06-13T08:04:04.551Z,99946.57
2018-06-13T08:06:32.904Z,99947.94
2018-06-13T08:09:01.307Z,99949.72
2018-06-13T08:11:34.756Z,99945.16
2018-06-13T08:14:03.082Z,99945.70
2018-06-13T08:16:31.540Z,99946.27
2018-06-13T08:19:00.023Z,99950.39
2018-06-13T08:21:28.414Z,99956.20
2018-06-13T08:23:56.777Z,99951.77
2018-06-13T08:26:25.260Z,99956.09
2018-06-13T08:28:53.597Z,99952.41
2018-06-13T08:31:21.954Z,99952.44
2018-06-13T08:33:50.377Z,99959.83
2018-06-13T08:36:18.684Z,99955.09
2018-06-13T08:38:47.084Z,99950.19
2018-06-13T08:44:22.833Z,99945.79
2018-06-13T08:46:51.374Z,99943.79
2018-06-13T08:49:20.674Z,99938.66
2018-06-13T08:54:42.246Z,99936.17
2018-06-13T08:57:11.036Z,99936.85
2018-06-13T08:59:40.632Z,99949.49
2018-06-13T09:04:51.372Z,99955.59
2018-06-13T09:07:21.497Z,99959.41
2018-06-13T09:09:50.440Z,99960.19
2018-06-13T09:12:24.384Z,99959.31
2018-06-13T09:14:53.514Z,99957.96
2018-06-13T09:17:23.888Z,99957.65
2018-06-13T09:19:52.608Z,99958.11
2018-06-13T09:22:21.485Z,99963.95
2018-06-13T09:24:50.217Z,99966.19
2018-06-13T09:27:19.012Z,99971.81
2018-06-13T09:29:47.686Z,99967.22
2018-06-13T09:32:30.266Z,99968.55
2018-06-13T09:34:59.294Z,99969.58
2018-06-13T09:37:28.425Z,99966.50
2018-06-13T09:39:58.240Z,99968.86
2018-06-13T09:42:28.506Z,99968.52
2018-06-13T09:44:57.228Z,99966.29
2018-06-13T09:47:26.790Z,99971.22
2018-06-13T09:49:56.870Z,99963.27
2018-06-13T09:52:33.808Z,99964.71
2018-06-13T09:55:02.666Z,99970.77
2018-06-13T09:57:31.903Z,99969.53
2018-06-13T10:00:05.904Z,99964.03
2018-06-13T10:02:36.572Z,99962.26
2018-06-13T10:05:06.644Z,99961.00
2018-06-13T10:07:35.454Z,99965.63
2018-06-13T10:10:22.798Z,99966.19
2018-06-13T10:12:51.856Z,99966.29
2018-06-13T10:15:24.746Z,99956.11
2018-06-13T10:17:55.224Z,99965.30
2018-06-13T10:20:25.584Z,99972.02
2018-06-13T10:22:56.250Z,99974.82
2018-06-13T10:25:25.991Z,99985.47
2018-06-13T10:27:55.628Z,99984.00
2018-06-13T10:30:24.645Z,99990.29
2018-06-13T10:32:53.936Z,99986.59
2018-06-13T10:35:22.642Z,99990.70
2018-06-13T10:37:51.581Z,99989.91
2018-06-13T10:40:21.238Z,99999.88
2018-06-13T10:42:50.362Z,99999.05
2018-06-13T10:45:20.057Z,99990.73
2018-06-13T10:47:48.897Z,100000.69
2018-06-13T10:50:17.504Z,100005.12
2018-06-13T10:52:47.436Z,100001.41
2018-06-13T10:55:16.259Z,100009.10
2018-06-13T10:57:44.884Z,100008.87
2018-06-13T11:00:15.080Z,100002.99
2018-06-13T11:02:44.140Z,100016.18
2018-06-13T11:05:13.002Z,100009.94
2018-06-13T11:07:42.138Z,100002.86
2018-06-13T11:13:09.171Z,100021.08
2018-06-13T11:15:37.849Z,100022.42
2018-06-13T11:18:06.190Z,100021.61
2018-06-13T11:20:34.916Z,100019.03
2018-06-13T11:23:03.220Z,100021.38
2018-06-13T11:25:31.635Z,100027.94
2018-06-13T11:28:01.233Z,100020.52
2018-06-13T11:30:29.993Z,100022.01
2018-06-13T11:32:58.353Z,100020.86
2018-06-13T11:35:26.763Z,100022.88
2018-06-13T11:37:55.752Z,100027.82
2018-06-13T11:40:24.230Z,100027.02
2018-06-13T11:42:53.050Z,100022.57
2018-06-13T11:45:22.160Z,100027.08
2018-06-13T11:47:50.658Z,100013.83
2018-06-13T11:56:20.688Z,100015.55
2018-06-13T11:58:49.628Z,100025.25
2018-06-13T12:04:11.195Z,100032.16
2018-06-13T12:06:39.670Z,100027.90
2018-06-13T12:09:25.465Z,100033.83
2018-06-13T12:12:03.329Z,100026.92
2018-06-13T12:14:32.106Z,100036.11
2018-06-13T12:17:01.876Z,100030.45
2018-06-13T12:19:30.824Z,100040.05
2018-06-13T12:21:59.705Z,100032.60
2018-06-13T12:24:28.980Z,100033.26
2018-06-13T12:26:57.791Z,100032.57
2018-06-13T12:29:26.260Z,100029.23
2018-06-13T12:31:54.721Z,100031.05
2018-06-13T12:34:23.382Z,100026.79
2018-06-13T12:36:52.299Z,100029.74
2018-06-13T12:39:21.028Z,100031.53
2018-06-13T12:41:54.767Z,100027.75
2018-06-13T12:44:25.867Z,100031.91
2018-06-13T12:46:54.769Z,100033.16
2018-06-13T12:55:30.494Z,100029.04
2018-06-13T12:57:59.486Z,100033.87
2018-06-13T13:00:28.308Z,100035.63
2018-06-13T13:02:56.716Z,100037.24
2018-06-13T13:05:25.686Z,100033.64
2018-06-13T13:07:54.264Z,100032.84
2018-06-13T13:13:29.593Z,100032.89
2018-06-13T13:15:58.400Z,100035.09
2018-06-13T13:18:26.827Z,100035.34
2018-06-13T13:21:04.895Z,100031.08
2018-06-13T13:23:33.791Z,100032.75
2018-06-13T13:26:02.203Z,100037.06
2018-06-13T13:28:30.936Z,100039.18
2018-06-13T13:30:59.503Z,100039.00
2018-06-13T13:33:28.755Z,100041.17
2018-06-13T13:35:57.280Z,100043.22
2018-06-13T13:38:26.413Z,100046.20
2018-06-13T13:40:55.171Z,100052.61
2018-06-13T13:43:24.213Z,100038.30
2018-06-13T13:45:52.976Z,100041.99
2018-06-13T13:48:22.038Z,100043.52
2018-06-13T13:50:50.613Z,100047.09
2018-06-13T13:53:19.296Z,100038.91
2018-06-13T13:55:48.251Z,100049.92
2018-06-13T13:58:17.929Z,100052.23
2018-06-13T14:06:54.449Z,100050.02
2018-06-13T14:09:25.742Z,100055.83
2018-06-13T14:11:59.716Z,100047.78
2018-06-13T14:14:29.251Z,100051.56
2018-06-13T14:16:58.277Z,100051.71
2018-06-13T14:19:27.216Z,100050.94
2018-06-13T14:21:55.917Z,100050.28
2018-06-13T14:24:24.643Z,100050.47
2018-06-13T14:26:53.903Z,100055.92
2018-06-13T14:29:32.603Z,100057.17
2018-06-13T14:32:24.094Z,100059.41
2018-06-13T14:34:52.837Z,100066.41
2018-06-13T14:37:22.674Z,100065.78
2018-06-13T14:39:51.675Z,100069.86
2018-06-13T14:45:27.859Z,100062.35
2018-06-13T14:47:56.648Z,100067.72
2018-06-13T14:50:26.503Z,100067.90
2018-06-13T14:52:55.120Z,100069.95
2018-06-13T14:55:24.190Z,100073.56
2018-06-13T14:57:52.869Z,100074.15
2018-06-13T15:00:26.622Z,100069.02
2018-06-13T15:02:55.204Z,100073.19
2018-06-13T15:05:23.764Z,100069.26
2018-06-13T15:07:52.382Z,100065.77
2018-06-13T15:10:26.446Z,100059.06
2018-06-13T15:12:54.982Z,100060.55
2018-06-13T15:15:23.386Z,100060.41
2018-06-13T15:17:53.364Z,100064.48
2018-06-13T15:20:21.899Z,100063.13
2018-06-13T15:22:50.339Z,100066.30
2018-06-13T15:25:18.869Z,100060.03
2018-06-13T15:27:47.750Z,100064.63
2018-06-13T15:30:25.875Z,100066.58
2018-06-13T15:32:54.390Z,100069.50
2018-06-13T15:35:22.982Z,100071.42
2018-06-13T15:37:51.543Z,100073.34
2018-06-13T15:40:20.273Z,100069.27
2018-06-13T15:42:48.678Z,100064.80
2018-06-13T15:45:17.949Z,100065.90
2018-06-13T15:47:46.560Z,100075.97
2018-06-13T15:50:20.059Z,100069.50
2018-06-13T15:52:48.708Z,100081.72
2018-06-13T15:55:17.363Z,100079.37
2018-06-13T15:57:46.030Z,100077.31
2018-06-13T16:00:14.630Z,100074.72
2018-06-13T16:02:43.412Z,100079.32
2018-06-13T16:05:12.267Z,100081.59
2018-06-13T16:07:40.755Z,100092.00
2018-06-13T16:10:09.526Z,100095.58
2018-06-13T16:12:37.938Z,100104.73
2018-06-13T16:15:06.354Z,100109.86
2018-06-13T16:17:34.746Z,100102.83
2018-06-13T16:20:03.234Z,100100.70
2018-06-13T16:22:31.748Z,100106.55
2018-06-13T16:25:00.080Z,100102.13
2018-06-13T16:27:28.698Z,100104.39
2018-06-13T16:29:57.305Z,100112.20
2018-06-13T16:32:30.934Z,100114.13
2018-06-13T16:34:59.473Z,100121.27
2018-06-13T16:37:28.392Z,100123.09
2018-06-13T16:39:56.923Z,100118.23
2018-06-13T16:42:48.162Z,100124.00
2018-06-13T16:45:16.511Z,100121.61
2018-06-13T16:47:44.874Z,100120.59
2018-06-13T16:50:24.505Z,100120.39
2018-06-13T16:53:05.885Z,100124.03
2018-06-13T16:55:34.633Z,100123.73
2018-06-13T16:58:02.992Z,100125.91
2018-06-13T17:00:31.590Z,100125.76
2018-06-13T17:03:00.114Z,100129.55
2018-06-13T17:05:28.565Z,100122.30
2018-06-13T17:07:57.028Z,100132.80
2018-06-13T17:10:25.546Z,100133.66
2018-06-13T17:12:54.085Z,100135.78
2018-06-13T17:15:22.748Z,100139.23
2018-06-13T17:17:51.333Z,100140.99
2018-06-13T17:20:29.292Z,100138.40
2018-06-13T17:22:57.761Z,100133.03
2018-06-13T17:25:26.240Z,100146.89
2018-06-13T17:27:54.700Z,100143.11
2018-06-13T17:30:23.414Z,100155.75
2018-06-13T17:32:52.075Z,100155.66
2018-06-13T17:35:21.014Z,100155.66
2018-06-13T17:37:49.547Z,100151.64
2018-06-13T17:40:18.909Z,100158.87
2018-06-13T17:42:47.254Z,100164.24
2018-06-13T17:45:15.825Z,100156.61
2018-06-13T17:47:44.424Z,100162.22
2018-06-13T17:50:13.030Z,100160.55
2018-06-13T17:52:41.599Z,100165.14
2018-06-13T17:55:10.306Z,100167.10
2018-06-13T17:57:39.101Z,100167.34
2018-06-13T18:00:07.557Z,100173.96
2018-06-13T18:02:36.088Z,100169.25
2018-06-13T18:05:04.668Z,100175.15
2018-06-13T18:07:33.263Z,100181.23
2018-06-13T18:10:01.823Z,100178.55
2018-06-13T18:12:30.853Z,100185.34
2018-06-13T18:14:59.458Z,100188.80
2018-06-13T18:17:28.714Z,100188.18
2018-06-13T18:19:57.464Z,100185.59
2018-06-13T18:22:26.115Z,100191.03
2018-06-13T18:24:54.636Z,100190.47
2018-06-13T18:27:23.519Z,100194.25
2018-06-13T18:29:52.054Z,100189.39
2018-06-13T18:32:20.493Z,100199.02
2018-06-13T18:34:49.529Z,100204.30
2018-06-13T18:37:18.507Z,100203.81
2018-06-13T18:39:47.658Z,100206.05
2018-06-13T18:42:16.233Z,100204.70
2018-06-13T18:44:44.992Z,100205.16
2018-06-13T18:47:13.667Z,100204.38
2018-06-13T18:49:42.473Z,100205.96
2018-06-13T18:52:11.068Z,100205.65
2018-06-13T18:54:42.159Z,100207.77
2018-06-13T18:57:10.906Z,100209.02
2018-06-13T18:59:39.759Z,100206.34
2018-06-13T19:02:08.400Z,100215.81
2018-06-13T19:04:37.649Z,100208.33
2018-06-13T19:07:06.740Z,100209.75
2018-06-13T19:09:35.708Z,100214.10
2018-06-13T19:12:09.375Z,100219.80
2018-06-13T19:14:37.779Z,100224.14
2018-06-13T19:17:06.514Z,100220.97
2018-06-13T19:19:35.185Z,100220.56
2018-06-13T19:22:03.688Z,100217.72
2018-06-13T19:24:32.219Z,100224.98
2018-06-13T19:27:01.486Z,100220.03
2018-06-13T19:29:30.383Z,100238.89
2018-06-13T19:32:04.187Z,100239.58
2018-06-13T19:34:32.924Z,100246.12
2018-06-13T19:37:01.524Z,100243.13
2018-06-13T19:39:30.334Z,100245.19
2018-06-13T19:45:10.056Z,100252.91
2018-06-13T19:47:43.778Z,100259.08
2018-06-13T19:50:12.431Z,100260.95
2018-06-13T19:52:46.288Z,100257.02
2018-06-13T19:55:20.278Z,100261.84
2018-06-13T19:57:48.909Z,100265.14
2018-06-13T20:00:17.718Z,100267.05
2018-06-13T20:02:51.954Z,100267.37
2018-06-13T20:05:27.053Z,100267.90
2018-06-13T20:07:57.095Z,100268.71
2018-06-13T20:10:25.849Z,100267.83
2018-06-13T20:12:59.694Z,100264.69
2018-06-13T20:15:33.564Z,100262.09
2018-06-13T20:18:07.251Z,100271.30
2018-06-13T20:20:40.834Z,100269.00
2018-06-13T20:23:09.354Z,100265.78
2018-06-13T20:25:43.216Z,100267.90
2018-06-13T20:28:17.340Z,100269.00
2018-06-13T20:31:26.128Z,100272.94
2018-06-13T20:33:54.706Z,100275.09
2018-06-13T20:36:23.424Z,100276.19
2018-06-13T20:38:52.178Z,100283.22
2018-06-13T20:41:20.711Z,100282.97
2018-06-13T20:43:49.292Z,100283.98
2018-06-13T20:46:17.800Z,100281.30
2018-06-13T20:48:46.414Z,100274.39
2018-06-13T20:51:15.384Z,100281.45
2018-06-13T20:53:43.975Z,100271.30
2018-06-13T20:56:12.440Z,100267.03
2018-06-13T20:58:41.370Z,100270.03
2018-06-13T21:01:09.792Z,100273.20
2018-06-13T21:03:38.236Z,100280.53
2018-06-13T21:06:07.100Z,100283.98
2018-06-13T21:08:35.430Z,100286.66
2018-06-13T21:11:13.278Z,100288.49
2018-06-13T21:13:41.668Z,100286.91
2018-06-13T21:16:10.214Z,100286.38
2018-06-13T21:18:38.721Z,100292.59
2018-06-13T21:21:16.644Z,100292.83
2018-06-13T21:23:45.310Z,100297.17
2018-06-13T21:26:13.734Z,100296.45
2018-06-13T21:28:42.157Z,100300.71
2018-06-13T21:31:10.682Z,100307.90
2018-06-13T21:33:39.188Z,100314.68
2018-06-13T21:36:07.716Z,100316.55
2018-06-13T21:38:36.061Z,100315.21
2018-06-13T21:46:50.966Z,100313.80
2018-06-13T21:49:19.444Z,100316.55
2018-06-13T21:51:47.826Z,100311.75
2018-06-13T21:54:16.324Z,100311.75
2018-06-13T21:56:44.783Z,100315.21
2018-06-13T21:59:13.118Z,100309.61
2018-06-13T22:01:41.666Z,100309.92
2018-06-13T22:04:10.090Z,100318.53
2018-06-13T22:06:38.566Z,100314.09
2018-06-13T22:09:08.855Z,100312.69
2018-06-13T22:11:42.781Z,100316.53
2018-06-13T22:14:12.029Z,100314.98
2018-06-13T22:16:40.463Z,100321.61
2018-06-13T22:19:08.854Z,100326.16
2018-06-13T22:21:50.953Z,100324.50
2018-06-13T22:24:19.264Z,100325.84
2018-06-13T22:26:47.577Z,100326.97
2018-06-13T22:29:17.600Z,100321.36
2018-06-13T22:31:46.459Z,100319.46
2018-06-13T22:34:16.244Z,100322.95
2018-06-13T22:36:45.684Z,100328.06
2018-06-13T22:39:14.202Z,100330.50
2018-06-13T22:41:43.005Z,100328.06
2018-06-13T22:44:12.571Z,100325.29
2018-06-13T22:46:42.043Z,100334.35
2018-06-13T22:49:10.565Z,100323.88
2018-06-13T22:51:57.687Z,100325.92
2018-06-13T22:54:27.161Z,100323.48
2018-06-13T22:56:56.244Z,100325.06
2018-06-13T22:59:24.777Z,100323.65
2018-06-13T23:01:53.401Z,100322.63
2018-06-13T23:04:21.929Z,100317.49
2018-06-13T23:06:50.887Z,100314.57
2018-06-13T23:09:20.929Z,100316.80
2018-06-13T23:11:52.369Z,100318.20
2018-06-13T23:14:26.298Z,100323.33
2018-06-13T23:16:55.154Z,100316.14
2018-06-13T23:19:24.015Z,100320.08
2018-06-13T23:21:54.859Z,100320.64
2018-06-13T23:24:23.679Z,100323.70
2018-06-13T23:26:52.402Z,100317.72
2018-06-13T23:29:21.857Z,100325.20
2018-06-13T23:31:50.425Z,100325.76
2018-06-13T23:34:19.707Z,100326.53
2018-06-13T23:36:48.320Z,100324.73
2018-06-13T23:39:16.648Z,100317.72
2018-06-13T23:41:45.905Z,100317.96
2018-06-13T23:44:14.681Z,100315.28
2018-06-13T23:46:44.089Z,100323.08
2018-06-13T23:49:15.731Z,100326.92
2018-06-13T23:51:57.828Z,100328.02
2018-06-13T23:54:27.913Z,100323.93
2018-06-13T23:56:57.258Z,100324.00
2018-06-13T23:59:25.830Z,100320.59
